Time;durP1;ratioP1;P1;durP2;ratioP2;P2;SDS_P1;SDS_P2;PMS_P1;PMS_P2;Temp;Humidity;BMP_temperature;BMP_pressure;BME280_temperature;BME280_humidity;BME280_pressure;Samples;Min_cycle;Max_cycle;Signal;HPM_P1;HPM_P2
2022/08/24 00:01:16;;;;;;;4.67;1.93;;;;;;;;;;5133582;27;20698;-49
2022/08/24 00:03:44;;;;;;;6.53;2.30;;;;;;;;;;5133697;27;20233;-49
2022/08/24 00:06:11;;;;;;;5.47;1.93;;;;;;;;;;5133771;27;20205;-48
2022/08/24 00:08:38;;;;;;;3.50;2.10;;;;;;;;;;5134048;27;20201;-48
2022/08/24 00:11:04;;;;;;;4.23;1.70;;;;;;;;;;5134181;27;20224;-48
2022/08/24 00:13:30;;;;;;;3.23;2.00;;;;;;;;;;5133902;27;20280;-50
2022/08/24 00:15:56;;;;;;;2.87;2.00;;;;;;;;;;5133062;27;20808;-49
2022/08/24 00:18:23;;;;;;;5.20;2.10;;;;;;;;;;5133466;27;20197;-49
2022/08/24 00:20:50;;;;;;;4.27;2.00;;;;;;;;;;5133776;27;20193;-49
2022/08/24 00:23:16;;;;;;;4.97;1.67;;;;;;;;;;5133537;27;20189;-49
2022/08/24 00:25:42;;;;;;;3.33;2.03;;;;;;;;;;5133676;27;20193;-50
2022/08/24 00:28:08;;;;;;;3.93;1.97;;;;;;;;;;5133705;27;20559;-49
2022/08/24 00:30:34;;;;;;;3.57;2.13;;;;;;;;;;5133452;27;20721;-49
2022/08/24 00:33:01;;;;;;;4.57;1.73;;;;;;;;;;5133727;27;20293;-49
2022/08/24 00:35:27;;;;;;;2.47;1.60;;;;;;;;;;5133544;27;20284;-50
2022/08/24 00:37:55;;;;;;;3.30;1.97;;;;;;;;;;5133673;27;20204;-49
2022/08/24 00:40:23;;;;;;;4.70;2.00;;;;;;;;;;5133354;27;20209;-50
2022/08/24 00:42:49;;;;;;;4.53;1.97;;;;;;;;;;5132881;27;20724;-49
2022/08/24 00:45:16;;;;;;;7.13;2.40;;;;;;;;;;5132265;27;20198;-49
2022/08/24 00:47:47;;;;;;;4.17;1.77;;;;;;;;;;5133115;27;20212;-50
2022/08/24 00:50:17;;;;;;;3.50;2.00;;;;;;;;;;5132338;27;20201;-49
2022/08/24 00:52:46;;;;;;;3.87;1.90;;;;;;;;;;5132930;27;20601;-49
2022/08/24 00:55:16;;;;;;;3.40;1.90;;;;;;;;;;5133089;27;20193;-49
2022/08/24 00:57:44;;;;;;;3.13;2.00;;;;;;;;;;5133128;27;20289;-49
2022/08/24 01:00:13;;;;;;;8.13;2.20;;;;;;;;;;5132860;27;20200;-51
2022/08/24 01:02:42;;;;;;;2.10;1.77;;;;;;;;;;5133101;27;20193;-49
2022/08/24 01:05:09;;;;;;;3.07;1.83;;;;;;;;;;5133088;27;20726;-50
2022/08/24 01:07:37;;;;;;;3.60;2.00;;;;;;;;;;5133211;27;20322;-50
2022/08/24 01:10:04;;;;;;;5.37;2.17;;;;;;;;;;5133096;27;20197;-50
2022/08/24 01:12:33;;;;;;;3.37;2.23;;;;;;;;;;5133062;27;20244;-50
2022/08/24 01:15:00;;;;;;;3.17;2.20;;;;;;;;;;5133008;27;20193;-50
2022/08/24 01:20:11;;;;;;;3.13;2.20;;;;;;;;;;5133118;27;20755;-49
2022/08/24 01:22:56;;;;;;;3.20;1.70;;;;;;;;;;5133069;27;20558;-51
2022/08/24 01:25:24;;;;;;;3.70;2.20;;;;;;;;;;5132670;27;20201;-51
2022/08/24 01:27:53;;;;;;;3.60;2.10;;;;;;;;;;5133025;27;20194;-50
2022/08/24 01:30:19;;;;;;;2.40;1.90;;;;;;;;;;5132414;27;20266;-50
2022/08/24 01:32:52;;;;;;;3.57;2.00;;;;;;;;;;5132903;27;20197;-49
2022/08/24 01:35:18;;;;;;;4.07;2.23;;;;;;;;;;5132787;27;20208;-49
2022/08/24 01:37:44;;;;;;;4.07;1.90;;;;;;;;;;5132898;27;20203;-49
2022/08/24 01:40:10;;;;;;;4.90;2.20;;;;;;;;;;5132560;27;20355;-49
2022/08/24 01:42:38;;;;;;;4.30;2.17;;;;;;;;;;5132660;27;20217;-49
2022/08/24 01:45:04;;;;;;;3.50;2.03;;;;;;;;;;5132660;27;20196;-49
2022/08/24 01:47:30;;;;;;;4.03;1.80;;;;;;;;;;5132477;27;20201;-49
2022/08/24 01:49:56;;;;;;;3.73;1.90;;;;;;;;;;5132740;27;20227;-49
2022/08/24 01:52:24;;;;;;;2.90;1.77;;;;;;;;;;5132496;27;20229;-49
2022/08/24 01:54:50;;;;;;;3.53;2.00;;;;;;;;;;5132666;27;20246;-49
2022/08/24 01:57:16;;;;;;;5.43;2.27;;;;;;;;;;5132371;27;20201;-49
2022/08/24 01:59:44;;;;;;;2.50;1.70;;;;;;;;;;5132495;27;20192;-49
2022/08/24 02:02:12;;;;;;;5.67;2.17;;;;;;;;;;5132538;27;20193;-49
2022/08/24 02:04:38;;;;;;;3.10;2.00;;;;;;;;;;5132548;27;20297;-49
2022/08/24 02:07:04;;;;;;;5.67;2.00;;;;;;;;;;5132300;27;20217;-49
2022/08/24 02:09:30;;;;;;;3.33;1.70;;;;;;;;;;5132402;27;20202;-49
2022/08/24 02:11:56;;;;;;;4.03;2.00;;;;;;;;;;5132472;27;20305;-49
2022/08/24 02:14:22;;;;;;;2.50;1.93;;;;;;;;;;5132417;27;20660;-49
2022/08/24 02:16:50;;;;;;;3.80;1.90;;;;;;;;;;5132400;27;20212;-48
2022/08/24 02:19:16;;;;;;;2.60;2.00;;;;;;;;;;5132022;27;20690;-49
2022/08/24 02:21:42;;;;;;;4.17;2.20;;;;;;;;;;5132471;27;20186;-49
2022/08/24 02:24:08;;;;;;;3.43;2.17;;;;;;;;;;5132337;27;20193;-49
2022/08/24 02:26:34;;;;;;;4.43;2.10;;;;;;;;;;5132192;27;20284;-49
2022/08/24 02:29:00;;;;;;;6.57;1.83;;;;;;;;;;5132352;27;20232;-49
2022/08/24 02:31:26;;;;;;;2.73;1.77;;;;;;;;;;5131017;27;20269;-49
2022/08/24 02:33:53;;;;;;;5.17;2.10;;;;;;;;;;5131988;27;20201;-49
2022/08/24 02:36:19;;;;;;;3.57;1.93;;;;;;;;;;5132194;27;20202;-48
2022/08/24 02:38:45;;;;;;;5.90;2.10;;;;;;;;;;5134761;27;20208;-49
2022/08/24 02:41:11;;;;;;;3.40;2.00;;;;;;;;;;5135853;27;20748;-49
2022/08/24 02:43:37;;;;;;;4.10;1.83;;;;;;;;;;5135953;27;20201;-49
2022/08/24 02:46:03;;;;;;;6.07;2.10;;;;;;;;;;5133788;27;20685;-49
2022/08/24 02:48:29;;;;;;;3.83;2.17;;;;;;;;;;5135180;27;20213;-49
2022/08/24 02:50:57;;;;;;;3.47;2.40;;;;;;;;;;5135791;27;20288;-49
2022/08/24 02:53:23;;;;;;;3.63;1.90;;;;;;;;;;5135520;27;20584;-49
2022/08/24 02:55:49;;;;;;;3.67;2.13;;;;;;;;;;5135611;27;20189;-49
2022/08/24 02:58:16;;;;;;;4.30;2.30;;;;;;;;;;5135552;27;20197;-49
2022/08/24 03:00:46;;;;;;;3.10;2.07;;;;;;;;;;5135603;27;20230;-49
2022/08/24 03:03:12;;;;;;;2.13;1.93;;;;;;;;;;5135221;27;20204;-49
2022/08/24 03:05:38;;;;;;;4.73;2.10;;;;;;;;;;5135335;27;20673;-49
2022/08/24 03:08:06;;;;;;;3.03;1.97;;;;;;;;;;5134983;27;20245;-50
2022/08/24 03:10:32;;;;;;;3.20;2.20;;;;;;;;;;5135044;27;20676;-49
2022/08/24 03:13:00;;;;;;;4.13;2.33;;;;;;;;;;5135166;27;20640;-50
2022/08/24 03:15:26;;;;;;;4.30;2.23;;;;;;;;;;5134973;27;20201;-49
2022/08/24 03:17:52;;;;;;;4.17;2.30;;;;;;;;;;5135002;27;20677;-49
2022/08/24 03:20:19;;;;;;;3.13;2.20;;;;;;;;;;5134869;27;20193;-49
2022/08/24 03:22:45;;;;;;;4.70;2.00;;;;;;;;;;5135249;27;20224;-49
2022/08/24 03:25:14;;;;;;;5.40;2.20;;;;;;;;;;5134679;27;20201;-49
2022/08/24 03:27:40;;;;;;;3.57;2.47;;;;;;;;;;5134939;27;20212;-49
2022/08/24 03:30:09;;;;;;;3.03;2.30;;;;;;;;;;5134278;27;20255;-49
2022/08/24 03:32:35;;;;;;;4.73;2.53;;;;;;;;;;5134613;27;20225;-49
2022/08/24 03:35:01;;;;;;;5.07;2.20;;;;;;;;;;5134609;27;20249;-49
2022/08/24 03:37:27;;;;;;;4.17;2.20;;;;;;;;;;5134322;27;20204;-49
2022/08/24 03:39:53;;;;;;;6.17;2.63;;;;;;;;;;5134321;27;20193;-49
2022/08/24 03:42:20;;;;;;;2.97;2.20;;;;;;;;;;5134497;27;20280;-50
2022/08/24 03:44:46;;;;;;;2.93;2.03;;;;;;;;;;5134416;27;20209;-49
2022/08/24 03:47:12;;;;;;;3.73;2.00;;;;;;;;;;5132634;27;20181;-49
2022/08/24 03:49:38;;;;;;;6.43;2.20;;;;;;;;;;5134636;27;20731;-49
2022/08/24 03:52:04;;;;;;;3.77;1.90;;;;;;;;;;5134435;27;20225;-49
2022/08/24 03:54:31;;;;;;;5.20;2.10;;;;;;;;;;5134460;27;20227;-49
2022/08/24 03:57:00;;;;;;;2.57;1.93;;;;;;;;;;5134500;27;20197;-49
2022/08/24 03:59:28;;;;;;;4.33;2.20;;;;;;;;;;5134122;27;20268;-49
2022/08/24 04:01:56;;;;;;;5.17;2.40;;;;;;;;;;5133543;27;20197;-49
2022/08/24 04:04:22;;;;;;;7.57;2.20;;;;;;;;;;5133936;27;20280;-49
2022/08/24 04:06:48;;;;;;;4.40;2.27;;;;;;;;;;5134132;27;20734;-49
2022/08/24 04:09:14;;;;;;;2.97;2.00;;;;;;;;;;5134169;27;20268;-49
2022/08/24 04:11:42;;;;;;;4.17;2.10;;;;;;;;;;5133988;27;20232;-49
2022/08/24 04:14:09;;;;;;;6.03;2.60;;;;;;;;;;5133879;27;20679;-49
2022/08/24 04:16:37;;;;;;;4.93;2.13;;;;;;;;;;5133758;27;20596;-49
2022/08/24 04:19:03;;;;;;;2.80;1.87;;;;;;;;;;5133871;27;20201;-49
2022/08/24 04:21:30;;;;;;;3.07;2.40;;;;;;;;;;5134009;27;20190;-49
2022/08/24 04:23:56;;;;;;;2.60;2.00;;;;;;;;;;5133697;27;20192;-49
2022/08/24 04:26:23;;;;;;;3.33;2.10;;;;;;;;;;5133719;27;20196;-49
2022/08/24 04:28:50;;;;;;;2.33;2.10;;;;;;;;;;5133700;27;20209;-49
2022/08/24 04:31:17;;;;;;;4.83;2.30;;;;;;;;;;5133324;27;20975;-49
2022/08/24 04:33:46;;;;;;;4.97;2.97;;;;;;;;;;5133659;27;20197;-49
2022/08/24 04:36:12;;;;;;;3.13;2.30;;;;;;;;;;5133402;27;20205;-49
2022/08/24 04:38:38;;;;;;;4.63;2.70;;;;;;;;;;5133576;27;20197;-49
2022/08/24 04:41:05;;;;;;;4.10;2.53;;;;;;;;;;5133565;27;20234;-49
2022/08/24 04:43:31;;;;;;;5.03;2.23;;;;;;;;;;5133599;27;20224;-49
2022/08/24 04:45:57;;;;;;;3.93;2.47;;;;;;;;;;5133500;27;20196;-49
2022/08/24 04:48:23;;;;;;;4.43;2.33;;;;;;;;;;5132767;27;20246;-49
2022/08/24 04:50:52;;;;;;;3.43;2.00;;;;;;;;;;5132634;27;20229;-49
2022/08/24 04:53:18;;;;;;;3.23;2.40;;;;;;;;;;5133366;27;20204;-56
2022/08/24 04:55:45;;;;;;;3.10;2.30;;;;;;;;;;5132154;27;20208;-55
2022/08/24 04:58:12;;;;;;;3.67;2.10;;;;;;;;;;5132576;27;20197;-56
2022/08/24 05:00:38;;;;;;;3.13;2.33;;;;;;;;;;5131548;27;20200;-56
2022/08/24 05:03:05;;;;;;;2.90;2.43;;;;;;;;;;5133057;27;20288;-56
2022/08/24 05:05:31;;;;;;;4.83;2.73;;;;;;;;;;5133153;27;20221;-55
2022/08/24 05:07:59;;;;;;;4.73;2.30;;;;;;;;;;5133192;27;20217;-56
2022/08/24 05:10:24;;;;;;;2.53;2.20;;;;;;;;;;5132876;27;20205;-56
2022/08/24 05:12:50;;;;;;;8.90;3.30;;;;;;;;;;5132637;27;20221;-56
2022/08/24 05:15:17;;;;;;;4.23;2.47;;;;;;;;;;5132604;27;20200;-55
2022/08/24 05:17:43;;;;;;;3.70;2.20;;;;;;;;;;5133099;27;20275;-55
2022/08/24 05:20:10;;;;;;;4.13;2.50;;;;;;;;;;5132334;27;20718;-55
2022/08/24 05:22:36;;;;;;;4.57;2.37;;;;;;;;;;5132438;27;20189;-55
2022/08/24 05:25:04;;;;;;;5.97;2.50;;;;;;;;;;5132898;27;20572;-55
2022/08/24 05:27:30;;;;;;;6.27;2.50;;;;;;;;;;5132092;27;20693;-55
2022/08/24 05:29:56;;;;;;;4.53;2.37;;;;;;;;;;5132520;27;20316;-56
2022/08/24 05:32:22;;;;;;;4.53;2.00;;;;;;;;;;5132282;27;20236;-56
2022/08/24 05:34:48;;;;;;;5.03;2.53;;;;;;;;;;5132933;27;20253;-56
2022/08/24 05:37:14;;;;;;;3.87;2.63;;;;;;;;;;5132900;27;20200;-57
2022/08/24 05:39:40;;;;;;;4.23;2.43;;;;;;;;;;5132662;27;20251;-56
2022/08/24 05:42:08;;;;;;;5.23;2.40;;;;;;;;;;5132346;27;20216;-56
2022/08/24 05:44:34;;;;;;;5.57;2.47;;;;;;;;;;5132433;27;20232;-57
2022/08/24 05:47:01;;;;;;;6.43;2.90;;;;;;;;;;5130439;27;20242;-56
2022/08/24 05:49:28;;;;;;;3.37;2.60;;;;;;;;;;5132609;27;20197;-54
2022/08/24 05:51:54;;;;;;;4.27;2.50;;;;;;;;;;5132285;27;20221;-54
2022/08/24 05:54:22;;;;;;;6.80;2.70;;;;;;;;;;5132525;27;20213;-56
2022/08/24 05:56:48;;;;;;;5.13;2.50;;;;;;;;;;5132488;27;20250;-56
2022/08/24 05:59:16;;;;;;;3.23;2.40;;;;;;;;;;5132520;27;20259;-57
2022/08/24 06:01:43;;;;;;;5.90;2.13;;;;;;;;;;5132571;27;20226;-56
2022/08/24 06:04:09;;;;;;;9.43;2.70;;;;;;;;;;5132367;27;20222;-57
2022/08/24 06:06:35;;;;;;;5.73;2.67;;;;;;;;;;5132278;27;20236;-57
2022/08/24 06:09:01;;;;;;;6.23;2.77;;;;;;;;;;5132505;27;20292;-56
2022/08/24 06:11:29;;;;;;;7.93;2.33;;;;;;;;;;5132337;27;20218;-58
2022/08/24 06:13:57;;;;;;;6.63;2.60;;;;;;;;;;5135365;27;20289;-57
2022/08/24 06:16:24;;;;;;;10.50;2.80;;;;;;;;;;5136270;27;20249;-58
2022/08/24 06:18:51;;;;;;;3.83;2.40;;;;;;;;;;5136300;27;20288;-52
2022/08/24 06:21:19;;;;;;;3.90;2.50;;;;;;;;;;5136394;27;20209;-55
2022/08/24 06:23:45;;;;;;;5.43;3.00;;;;;;;;;;5136371;27;20235;-54
2022/08/24 06:28:59;;;;;;;3.87;2.17;;;;;;;;;;5136103;27;20563;-52
2022/08/24 06:31:26;;;;;;;5.60;2.63;;;;;;;;;;5135477;27;20596;-51
2022/08/24 06:33:52;;;;;;;6.13;2.33;;;;;;;;;;5135992;27;20229;-52
2022/08/24 06:36:18;;;;;;;8.30;2.50;;;;;;;;;;5134560;27;20223;-55
2022/08/24 06:38:45;;;;;;;5.37;2.37;;;;;;;;;;5136061;27;20213;-56
2022/08/24 06:41:11;;;;;;;5.37;2.50;;;;;;;;;;5135917;27;20201;-56
2022/08/24 06:43:37;;;;;;;6.87;2.70;;;;;;;;;;5135919;27;20285;-56
2022/08/24 06:46:04;;;;;;;7.53;2.23;;;;;;;;;;5135477;27;20194;-56
2022/08/24 06:48:31;;;;;;;3.67;2.70;;;;;;;;;;5134098;27;20194;-56
2022/08/24 06:50:58;;;;;;;5.03;2.37;;;;;;;;;;5134101;27;20232;-57
2022/08/24 06:53:24;;;;;;;4.60;2.23;;;;;;;;;;5134025;27;20190;-56
2022/08/24 06:55:50;;;;;;;4.47;2.37;;;;;;;;;;5134509;27;20200;-56
2022/08/24 06:58:17;;;;;;;3.63;2.40;;;;;;;;;;5135580;27;20202;-56
2022/08/24 07:00:43;;;;;;;6.00;2.40;;;;;;;;;;5135571;27;20660;-56
2022/08/24 07:03:09;;;;;;;4.87;2.10;;;;;;;;;;5135381;27;20656;-56
2022/08/24 07:05:36;;;;;;;3.07;2.07;;;;;;;;;;5135216;27;20220;-56
2022/08/24 07:08:03;;;;;;;7.47;2.60;;;;;;;;;;5135289;27;20221;-56
2022/08/24 07:10:29;;;;;;;5.33;2.20;;;;;;;;;;5135358;27;20607;-57
2022/08/24 07:12:55;;;;;;;3.23;2.17;;;;;;;;;;5135158;27;20228;-57
2022/08/24 07:15:21;;;;;;;4.13;2.40;;;;;;;;;;5135214;27;20560;-56
2022/08/24 07:17:47;;;;;;;3.23;1.90;;;;;;;;;;5133763;27;20593;-57
2022/08/24 07:20:13;;;;;;;2.53;2.20;;;;;;;;;;5134992;27;20555;-56
2022/08/24 07:22:40;;;;;;;5.40;2.30;;;;;;;;;;5135045;27;20190;-56
2022/08/24 07:25:07;;;;;;;4.13;2.00;;;;;;;;;;5134899;27;20255;-56
2022/08/24 07:27:33;;;;;;;4.47;2.40;;;;;;;;;;5134865;27;20609;-56
2022/08/24 07:29:59;;;;;;;3.33;1.90;;;;;;;;;;5134712;27;20227;-56
2022/08/24 07:32:25;;;;;;;3.73;2.00;;;;;;;;;;5134812;27;20224;-56
2022/08/24 07:34:51;;;;;;;5.40;2.10;;;;;;;;;;5134743;27;20200;-56
2022/08/24 07:37:17;;;;;;;3.93;2.10;;;;;;;;;;5134697;27;20241;-55
2022/08/24 07:39:45;;;;;;;3.70;2.13;;;;;;;;;;5134578;27;20200;-56
2022/08/24 07:42:11;;;;;;;3.13;2.20;;;;;;;;;;5134599;27;20252;-56
2022/08/24 07:44:37;;;;;;;2.90;1.97;;;;;;;;;;5134431;27;20196;-56
2022/08/24 07:47:03;;;;;;;4.00;2.13;;;;;;;;;;5134343;27;20212;-56
2022/08/24 07:49:31;;;;;;;5.53;2.07;;;;;;;;;;5134165;27;20249;-48
2022/08/24 07:51:57;;;;;;;3.30;2.30;;;;;;;;;;5134423;27;20225;-49
2022/08/24 07:54:23;;;;;;;6.70;1.93;;;;;;;;;;5129798;27;20219;-51
2022/08/24 07:56:51;;;;;;;3.43;1.90;;;;;;;;;;5134027;27;20201;-52
2022/08/24 07:59:17;;;;;;;5.73;2.10;;;;;;;;;;5131152;27;20208;-52
2022/08/24 08:01:43;;;;;;;2.10;1.73;;;;;;;;;;5133714;27;20185;-52
2022/08/24 08:04:09;;;;;;;3.77;1.93;;;;;;;;;;5134098;27;20189;-52
2022/08/24 08:06:36;;;;;;;4.90;2.00;;;;;;;;;;5130405;27;20213;-52
2022/08/24 08:09:03;;;;;;;4.23;2.13;;;;;;;;;;5131996;27;20202;-52
2022/08/24 08:11:29;;;;;;;2.73;1.83;;;;;;;;;;5132934;27;20221;-52
2022/08/24 08:13:57;;;;;;;7.07;2.10;;;;;;;;;;5133271;27;20254;-52
2022/08/24 08:16:23;;;;;;;4.03;2.03;;;;;;;;;;5132748;27;20190;-49
2022/08/24 08:18:49;;;;;;;7.13;2.20;;;;;;;;;;5132671;27;20685;-52
2022/08/24 08:24:15;;;;;;;3.40;2.00;;;;;;;;;;5131930;27;20599;-52
2022/08/24 08:26:41;;;;;;;4.07;2.00;;;;;;;;;;5133423;27;20197;-50
2022/08/24 08:29:09;;;;;;;6.43;2.10;;;;;;;;;;5133219;27;20592;-52
2022/08/24 08:31:36;;;;;;;4.10;1.67;;;;;;;;;;5133018;27;20236;-51
2022/08/24 08:34:02;;;;;;;5.23;2.00;;;;;;;;;;5132143;27;20204;-51
2022/08/24 08:36:29;;;;;;;5.03;2.00;;;;;;;;;;5131805;27;20647;-51
2022/08/24 08:38:55;;;;;;;8.17;2.43;;;;;;;;;;5133152;27;20192;-52
2022/08/24 08:41:43;;;;;;;3.70;1.80;;;;;;;;;;5133278;27;20245;-53
2022/08/24 08:44:16;;;;;;;4.63;2.10;;;;;;;;;;5133101;27;20299;-53
2022/08/24 08:46:46;;;;;;;3.03;2.00;;;;;;;;;;5133176;27;20212;-52
2022/08/24 08:49:25;;;;;;;4.43;1.87;;;;;;;;;;5132658;27;20212;-52
2022/08/24 08:51:57;;;;;;;4.97;2.00;;;;;;;;;;5133485;27;20297;-53
2022/08/24 08:54:34;;;;;;;4.70;2.13;;;;;;;;;;5132816;27;20193;-51
2022/08/24 08:57:08;;;;;;;2.43;1.93;;;;;;;;;;5133009;27;20267;-52
2022/08/24 08:59:44;;;;;;;3.90;1.70;;;;;;;;;;5132743;27;20202;-52
2022/08/24 09:02:17;;;;;;;3.80;2.03;;;;;;;;;;5132926;27;20269;-52
2022/08/24 09:04:50;;;;;;;5.17;2.00;;;;;;;;;;5132757;27;20203;-52
2022/08/24 09:07:26;;;;;;;2.90;1.50;;;;;;;;;;5132531;27;20648;-52
2022/08/24 09:10:02;;;;;;;4.37;2.27;;;;;;;;;;5133014;27;20193;-52
2022/08/24 09:12:32;;;;;;;4.93;1.90;;;;;;;;;;5132691;27;20221;-52
2022/08/24 09:15:14;;;;;;;4.27;1.70;;;;;;;;;;5132990;27;20175;-52
2022/08/24 09:17:57;;;;;;;2.60;1.60;;;;;;;;;;5132777;27;20207;-51
2022/08/24 09:20:33;;;;;;;5.80;1.83;;;;;;;;;;5132301;27;20587;-52
2022/08/24 09:23:05;;;;;;;8.90;1.90;;;;;;;;;;5132959;27;20195;-53
2022/08/24 09:25:35;;;;;;;5.73;2.07;;;;;;;;;;5132603;27;20198;-52
2022/08/24 09:28:12;;;;;;;7.37;1.70;;;;;;;;;;5132751;27;20206;-52
2022/08/24 09:30:51;;;;;;;3.70;1.80;;;;;;;;;;5129902;27;20254;-51
2022/08/24 09:33:20;;;;;;;5.27;1.90;;;;;;;;;;5131799;27;20232;-52
2022/08/24 09:36:04;;;;;;;3.67;1.83;;;;;;;;;;5131842;27;20200;-52
2022/08/24 09:38:37;;;;;;;2.23;1.70;;;;;;;;;;5130310;27;20197;-52
2022/08/24 09:41:17;;;;;;;1.97;1.67;;;;;;;;;;5132613;27;20198;-50
2022/08/24 09:44:01;;;;;;;5.77;1.83;;;;;;;;;;5128229;27;20186;-53
2022/08/24 09:46:42;;;;;;;4.13;1.80;;;;;;;;;;5128359;27;20204;-53
2022/08/24 09:49:25;;;;;;;3.13;1.80;;;;;;;;;;5136576;27;20670;-53
2022/08/24 09:52:02;;;;;;;2.50;1.63;;;;;;;;;;5136760;27;20227;-53
2022/08/24 09:54:50;;;;;;;2.73;1.60;;;;;;;;;;5136270;27;20294;-57
2022/08/24 09:57:24;;;;;;;3.60;2.10;;;;;;;;;;5136301;27;20275;-53
2022/08/24 10:00:05;;;;;;;3.73;1.90;;;;;;;;;;5136842;27;20196;-53
2022/08/24 10:02:40;;;;;;;2.27;1.60;;;;;;;;;;5136614;27;20203;-54
2022/08/24 10:05:09;;;;;;;3.60;1.80;;;;;;;;;;5136601;27;20579;-60
2022/08/24 10:07:39;;;;;;;5.17;1.90;;;;;;;;;;5136277;27;20747;-58
2022/08/24 10:10:12;;;;;;;3.00;1.80;;;;;;;;;;5136454;27;20290;-62
2022/08/24 10:12:45;;;;;;;4.53;1.80;;;;;;;;;;5136189;27;20224;-53
2022/08/24 10:15:16;;;;;;;6.37;2.00;;;;;;;;;;5136494;27;20268;-52
2022/08/24 10:17:50;;;;;;;2.43;1.57;;;;;;;;;;5136255;27;20205;-53
2022/08/24 10:20:22;;;;;;;5.57;1.73;;;;;;;;;;5136310;27;20194;-53
2022/08/24 10:23:12;;;;;;;4.23;1.87;;;;;;;;;;5135835;27;20644;-53
2022/08/24 10:25:39;;;;;;;3.30;1.83;;;;;;;;;;5120322;27;20203;-53
2022/08/24 10:28:22;;;;;;;4.23;1.70;;;;;;;;;;5135790;27;20537;-53
2022/08/24 10:30:57;;;;;;;6.20;1.60;;;;;;;;;;5135358;27;20244;-53
2022/08/24 10:33:27;;;;;;;3.40;1.70;;;;;;;;;;5135875;27;20227;-53
2022/08/24 10:36:14;;;;;;;3.53;1.60;;;;;;;;;;5135962;27;20213;-53
2022/08/24 10:41:47;;;;;;;4.97;1.90;;;;;;;;;;5135955;27;20673;-53
2022/08/24 10:44:29;;;;;;;5.03;1.73;;;;;;;;;;5135597;27;20657;-53
2022/08/24 10:46:58;;;;;;;6.00;1.80;;;;;;;;;;5135745;27;20330;-60
2022/08/24 10:49:43;;;;;;;5.83;1.73;;;;;;;;;;5134512;27;20210;-65
2022/08/24 10:52:18;;;;;;;2.33;1.50;;;;;;;;;;5135855;27;20229;-51
2022/08/24 10:54:45;;;;;;;4.33;2.00;;;;;;;;;;5135251;27;20551;-49
2022/08/24 10:57:15;;;;;;;7.63;1.53;;;;;;;;;;5135500;27;20283;-50
2022/08/24 10:59:48;;;;;;;4.70;1.80;;;;;;;;;;5134873;27;20265;-49
2022/08/24 11:02:28;;;;;;;3.53;1.83;;;;;;;;;;5135644;27;20561;-50
2022/08/24 11:04:55;;;;;;;3.13;1.70;;;;;;;;;;5135466;27;20204;-50
2022/08/24 11:07:23;;;;;;;3.93;1.67;;;;;;;;;;5135001;27;20299;-52
2022/08/24 11:09:55;;;;;;;3.13;1.53;;;;;;;;;;5134898;27;20249;-52
2022/08/24 11:12:23;;;;;;;3.07;1.60;;;;;;;;;;5135191;27;20305;-52
2022/08/24 11:14:50;;;;;;;2.10;1.50;;;;;;;;;;5135188;27;20193;-50
2022/08/24 11:17:17;;;;;;;3.13;1.80;;;;;;;;;;5135039;27;20712;-52
2022/08/24 11:19:43;;;;;;;1.83;1.60;;;;;;;;;;5133870;27;20552;-50
2022/08/24 11:22:27;;;;;;;2.47;1.70;;;;;;;;;;5135050;27;20675;-52
2022/08/24 11:24:54;;;;;;;3.07;1.63;;;;;;;;;;5135672;27;20602;-52
2022/08/24 11:27:25;;;;;;;3.27;1.87;;;;;;;;;;5135452;27;20194;-49
2022/08/24 11:29:56;;;;;;;4.43;2.30;;;;;;;;;;5135246;27;20236;-51
2022/08/24 11:32:29;;;;;;;5.67;1.80;;;;;;;;;;5135274;27;20226;-50
2022/08/24 11:34:55;;;;;;;3.50;1.80;;;;;;;;;;5135237;27;20595;-50
2022/08/24 11:37:24;;;;;;;3.80;1.70;;;;;;;;;;5135131;27;20582;-50
2022/08/24 11:39:50;;;;;;;4.77;1.70;;;;;;;;;;5135286;27;20223;-50
2022/08/24 11:42:22;;;;;;;2.73;1.70;;;;;;;;;;5135043;27;20199;-51
2022/08/24 11:44:53;;;;;;;3.67;1.90;;;;;;;;;;5135114;27;20195;-49
2022/08/24 11:47:32;;;;;;;4.70;1.83;;;;;;;;;;5134984;27;20188;-49
2022/08/24 11:50:01;;;;;;;3.70;2.00;;;;;;;;;;5134945;27;20233;-49
2022/08/24 11:52:34;;;;;;;4.13;1.60;;;;;;;;;;5134943;27;20317;-49
2022/08/24 11:55:02;;;;;;;3.40;1.70;;;;;;;;;;5134963;27;20205;-49
2022/08/24 11:57:30;;;;;;;4.10;1.70;;;;;;;;;;5134865;27;20204;-50
2022/08/24 11:59:59;;;;;;;4.83;2.00;;;;;;;;;;5134893;27;20604;-50
2022/08/24 12:02:27;;;;;;;5.00;1.80;;;;;;;;;;5134657;27;20266;-50
2022/08/24 12:04:57;;;;;;;5.20;1.60;;;;;;;;;;5132647;27;20643;-51
2022/08/24 12:07:30;;;;;;;3.40;1.63;;;;;;;;;;5134362;27;20251;-50
2022/08/24 12:10:02;;;;;;;3.20;1.67;;;;;;;;;;5133123;27;20201;-50
2022/08/24 12:12:32;;;;;;;3.90;2.10;;;;;;;;;;5133691;27;20239;-49
2022/08/24 12:15:02;;;;;;;4.27;1.70;;;;;;;;;;5133929;27;20200;-49
2022/08/24 12:17:33;;;;;;;4.10;1.80;;;;;;;;;;5133699;27;20191;-50
2022/08/24 12:20:02;;;;;;;3.63;1.80;;;;;;;;;;5133418;27;20192;-51
2022/08/24 12:22:28;;;;;;;4.93;2.00;;;;;;;;;;5133693;27;20215;-50
2022/08/24 12:24:56;;;;;;;5.97;1.67;;;;;;;;;;5133834;27;20205;-49
2022/08/24 12:27:25;;;;;;;3.37;2.00;;;;;;;;;;5133785;27;20606;-49
2022/08/24 12:29:52;;;;;;;5.00;1.70;;;;;;;;;;5133210;27;20335;-51
2022/08/24 12:32:19;;;;;;;7.00;2.10;;;;;;;;;;5133568;27;20589;-51
2022/08/24 12:34:48;;;;;;;3.77;1.90;;;;;;;;;;5133089;27;20274;-51
2022/08/24 12:37:19;;;;;;;6.67;1.80;;;;;;;;;;5133266;27;20201;-51
2022/08/24 12:39:48;;;;;;;5.43;2.00;;;;;;;;;;5133363;27;20197;-51
2022/08/24 12:42:16;;;;;;;4.67;1.90;;;;;;;;;;5133223;27;20561;-51
2022/08/24 12:44:46;;;;;;;5.73;2.17;;;;;;;;;;5133230;27;20273;-51
2022/08/24 12:47:18;;;;;;;4.77;1.90;;;;;;;;;;5133528;27;20198;-52
2022/08/24 12:49:47;;;;;;;2.30;1.90;;;;;;;;;;5133523;27;20620;-52
2022/08/24 12:52:34;;;;;;;3.13;2.10;;;;;;;;;;5133346;27;20232;-50
2022/08/24 12:55:07;;;;;;;4.10;2.20;;;;;;;;;;5107261;27;20198;-50
2022/08/24 12:57:39;;;;;;;4.23;1.80;;;;;;;;;;5132614;27;20206;-50
2022/08/24 13:00:08;;;;;;;3.87;1.90;;;;;;;;;;5132153;27;20201;-49
2022/08/24 13:02:36;;;;;;;3.50;1.83;;;;;;;;;;5132938;27;20194;-50
2022/08/24 13:05:08;;;;;;;4.80;1.87;;;;;;;;;;5133033;27;20199;-49
2022/08/24 13:07:39;;;;;;;3.03;2.10;;;;;;;;;;5132643;27;20226;-51
2022/08/24 13:10:08;;;;;;;4.83;1.93;;;;;;;;;;5132930;27;20584;-49
2022/08/24 13:12:51;;;;;;;5.70;1.90;;;;;;;;;;5132575;27;20233;-50
2022/08/24 13:15:24;;;;;;;4.53;1.80;;;;;;;;;;5132569;27;20648;-50
2022/08/24 13:17:51;;;;;;;4.37;1.70;;;;;;;;;;5132715;27;20194;-50
2022/08/24 13:20:19;;;;;;;5.47;1.97;;;;;;;;;;5132965;27;20219;-50
2022/08/24 13:22:47;;;;;;;3.43;1.80;;;;;;;;;;5132539;27;20247;-51
2022/08/24 13:25:37;;;;;;;5.20;2.20;;;;;;;;;;5133007;27;20205;-51
2022/08/24 13:28:06;;;;;;;2.97;2.20;;;;;;;;;;5132713;27;20273;-51
2022/08/24 13:30:49;;;;;;;3.70;2.10;;;;;;;;;;5132409;27;20262;-50
2022/08/24 13:33:19;;;;;;;2.33;1.73;;;;;;;;;;5132018;27;20228;-52
2022/08/24 13:36:00;;;;;;;4.37;2.30;;;;;;;;;;5132364;27;20285;-52
2022/08/24 13:38:44;;;;;;;4.03;2.23;;;;;;;;;;5132805;27;20209;-53
2022/08/24 13:41:15;;;;;;;5.70;2.30;;;;;;;;;;5132533;27;20669;-52
2022/08/24 13:43:45;;;;;;;3.07;2.27;;;;;;;;;;5132766;27;20281;-50
2022/08/24 13:46:16;;;;;;;4.37;1.97;;;;;;;;;;5132334;27;20203;-52
2022/08/24 13:48:47;;;;;;;3.70;2.03;;;;;;;;;;5132145;27;20292;-51
2022/08/24 13:51:25;;;;;;;6.23;1.80;;;;;;;;;;5132280;27;20193;-50
2022/08/24 13:53:57;;;;;;;6.33;1.87;;;;;;;;;;5132658;27;20196;-50
2022/08/24 13:56:28;;;;;;;5.77;2.17;;;;;;;;;;5132693;27;20611;-51
2022/08/24 13:59:00;;;;;;;4.53;2.20;;;;;;;;;;5132477;27;20203;-52
2022/08/24 14:01:33;;;;;;;4.97;2.30;;;;;;;;;;5132451;27;20190;-53
2022/08/24 14:04:15;;;;;;;3.93;2.10;;;;;;;;;;5132590;27;20230;-52
2022/08/24 14:06:49;;;;;;;2.50;1.90;;;;;;;;;;5132456;27;20237;-51
2022/08/24 14:09:20;;;;;;;3.93;2.30;;;;;;;;;;5132431;27;20194;-52
2022/08/24 14:12:03;;;;;;;4.53;2.23;;;;;;;;;;5132072;27;20782;-52
2022/08/24 14:14:40;;;;;;;2.83;1.90;;;;;;;;;;5132442;27;20202;-53
2022/08/24 14:19:59;;;;;;;3.23;1.70;;;;;;;;;;5132341;27;20680;-52
2022/08/24 14:22:29;;;;;;;2.87;1.67;;;;;;;;;;5132487;27;20202;-53
2022/08/24 14:25:03;;;;;;;3.60;2.00;;;;;;;;;;5132461;27;20198;-52
2022/08/24 14:27:37;;;;;;;3.40;1.80;;;;;;;;;;5132175;27;20193;-53
2022/08/24 14:30:22;;;;;;;2.63;1.90;;;;;;;;;;5132177;27;20239;-52
2022/08/24 14:33:03;;;;;;;4.13;2.10;;;;;;;;;;5132121;27;20230;-51
2022/08/24 14:35:35;;;;;;;7.43;2.10;;;;;;;;;;5135842;27;20262;-51
2022/08/24 14:38:09;;;;;;;4.47;1.87;;;;;;;;;;5136300;27;20241;-52
2022/08/24 14:40:37;;;;;;;3.93;2.00;;;;;;;;;;5135989;27;20629;-50
2022/08/24 14:43:14;;;;;;;2.87;1.77;;;;;;;;;;5136019;27;20197;-52
2022/08/24 14:45:45;;;;;;;2.87;1.67;;;;;;;;;;5135575;27;20204;-52
2022/08/24 14:48:18;;;;;;;5.27;2.10;;;;;;;;;;5135090;27;20622;-52
2022/08/24 14:50:48;;;;;;;4.17;1.90;;;;;;;;;;5135751;27;20205;-51
2022/08/24 14:53:22;;;;;;;5.47;1.97;;;;;;;;;;5135816;27;20235;-52
2022/08/24 14:55:54;;;;;;;3.90;1.67;;;;;;;;;;5134859;27;20205;-52
2022/08/24 14:58:26;;;;;;;3.60;1.90;;;;;;;;;;5135112;27;20296;-53
2022/08/24 15:01:03;;;;;;;5.67;1.83;;;;;;;;;;5135541;27;20200;-51
2022/08/24 15:03:41;;;;;;;4.67;1.97;;;;;;;;;;5135568;27;20210;-52
2022/08/24 15:06:10;;;;;;;5.23;1.73;;;;;;;;;;5135238;27;20206;-52
2022/08/24 15:08:43;;;;;;;6.90;2.10;;;;;;;;;;5134942;27;20199;-53
2022/08/24 15:11:10;;;;;;;3.70;1.80;;;;;;;;;;5135474;27;20193;-52